^^
Datos históricos de la estación: Murcia-Puente Tocinos
Diario Informe para Septiembre 16, 2019 Unidades:  Ambas    Ingés   Métrico
Diario Semanal Mensual Anual
  Máxima: Mínima: Promedio:
Temperatura: 75.6 °F /  24.2 °C 63.1 °F /  17.3 °C 68.5 °F /  20.3 °C
Punto de rocio: 59.9 °F /  15.5 °C 50.2 °F /  10.1 °C 56.1 °F /  13.4 °C
Humedad: 84% 45.8% 66%
Velocidad viento: 11.8mph /  19km/h - 5.8mph /  9.4km/h
Racha viento: 26.5mph /  42.6km/h - -
Viento- - ENE
Presión: 29.9 in /  1014.0 hPa 29.7 in /  1004.4 hPa -
Precipitación: 0 in /  0.0 mm    
 
 
Tabla de datos para Septiembre 16, 2019
Hora Temperatura Punto de rocio Presión Viento Velocidad viento Racha viento Humedad Intensidad lluvia(por hora) Nubes
00:04 66.6 °F /  19.2 °C 59.9 °F /  15.5 °C 29.9in /  1012.0hPa NE 6.9mph /  11.1km/h 19.7mph /  31.7km/h 79.1% 0in /  0.0mm
00:07 66.2 °F /  19 °C 59.5 °F /  15.3 °C 29.9in /  1012.0hPa NE 6.9mph /  11.1km/h 20mph /  32.2km/h 79% 0in /  0.0mm
00:13 66 °F /  18.9 °C 59.4 °F /  15.2 °C 29.9in /  1012.0hPa NE 10.7mph /  17.2km/h 14.5mph /  23.3km/h 79% 0in /  0.0mm
00:39 65.5 °F /  18.6 °C 58.5 °F /  14.7 °C 29.9in /  1014.0hPa NE 7.2mph /  11.6km/h 14mph /  22.5km/h 78.1% 0in /  0.0mm
00:44 65.5 °F /  18.6 °C 58.5 °F /  14.7 °C 29.9in /  1012.1hPa NE 6.9mph /  11.1km/h 19mph /  30.6km/h 78% 0in /  0.0mm
00:49 65.5 °F /  18.6 °C 58.5 °F /  14.7 °C 29.9in /  1012.1hPa NE 7.6mph /  12.2km/h 19mph /  30.6km/h 78% 0in /  0.0mm
00:54 65.5 °F /  18.6 °C 58.5 °F /  14.7 °C 29.9in /  1012.1hPa ENE 8.7mph /  14km/h 15mph /  24.1km/h 78% 0in /  0.0mm
00:59 65.5 °F /  18.6 °C 58.6 °F /  14.8 °C 29.9in /  1012.1hPa NE 7.8mph /  12.6km/h 12mph /  19.3km/h 78.6% 0in /  0.0mm
01:04 65.5 °F /  18.6 °C 58.8 °F /  14.9 °C 29.9in /  1012.1hPa NE 6.2mph /  10km/h 11.8mph /  19km/h 79% 0in /  0.0mm
01:09 65.3 °F /  18.5 °C 58.6 °F /  14.8 °C 29.9in /  1012.1hPa NE 6.2mph /  10km/h 13.8mph /  22.2km/h 79% 0in /  0.0mm
01:14 65.1 °F /  18.4 °C 58.5 °F /  14.7 °C 29.9in /  1012.1hPa NE 6.2mph /  10km/h 14mph /  22.5km/h 79% 0in /  0.0mm
01:19 64.9 °F /  18.3 °C 58.3 °F /  14.6 °C 29.9in /  1012.1hPa NE 6.9mph /  11.1km/h 14mph /  22.5km/h 79% 0in /  0.0mm
01:24 64.8 °F /  18.2 °C 58.3 °F /  14.6 °C 29.9in /  1012.1hPa NE 8.1mph /  13km/h 13.8mph /  22.2km/h 79.8% 0in /  0.0mm
01:29 64.8 °F /  18.2 °C 58.3 °F /  14.6 °C 29.9in /  1012.1hPa NE 7.9mph /  12.7km/h 14mph /  22.5km/h 80% 0in /  0.0mm
01:34 64.6 °F /  18.1 °C 58.3 °F /  14.6 °C 29.9in /  1012.2hPa NE 7.6mph /  12.2km/h 12mph /  19.3km/h 80% 0in /  0.0mm
01:39 64.4 °F /  18 °C 58.1 °F /  14.5 °C 29.9in /  1012.2hPa NE 6.8mph /  10.9km/h 10.4mph /  16.7km/h 80% 0in /  0.0mm
01:44 64.4 °F /  18 °C 58.1 °F /  14.5 °C 29.9in /  1012.2hPa NE 5.4mph /  8.7km/h 12.7mph /  20.4km/h 80% 0in /  0.0mm
01:49 64.2 °F /  17.9 °C 57.9 °F /  14.4 °C 29.9in /  1012.2hPa NNE 5.6mph /  9km/h 13mph /  20.9km/h 80% 0in /  0.0mm
01:54 64.2 °F /  17.9 °C 57.9 °F /  14.4 °C 29.9in /  1012.1hPa NNE 5.9mph /  9.5km/h 10mph /  16.1km/h 80% 0in /  0.0mm
01:59 64 °F /  17.8 °C 58.1 °F /  14.5 °C 29.9in /  1012.1hPa NNE 5.1mph /  8.2km/h 6.9mph /  11.1km/h 80.9% 0in /  0.0mm
02:04 63.9 °F /  17.7 °C 57.9 °F /  14.4 °C 29.9in /  1012.2hPa NNE 4mph /  6.5km/h 7mph /  11.3km/h 81% 0in /  0.0mm
02:09 63.9 °F /  17.7 °C 57.9 °F /  14.4 °C 29.9in /  1012.2hPa NE 3.7mph /  5.9km/h 7.6mph /  12.2km/h 81% 0in /  0.0mm
02:14 63.9 °F /  17.7 °C 57.9 °F /  14.4 °C 29.9in /  1012.2hPa NNE 3.1mph /  5km/h 8.1mph /  13km/h 81% 0in /  0.0mm
02:16 63.7 °F /  17.6 °C 57.7 °F /  14.3 °C 29.9in /  1012.2hPa NNE 3.1mph /  5km/h 8mph /  12.9km/h 81% 0in /  0.0mm
02:44 63.3 °F /  17.4 °C 57.7 °F /  14.3 °C 29.9in /  1012.2hPa NNE 3.1mph /  5km/h 8.1mph /  13km/h 82% 0in /  0.0mm
02:49 63.3 °F /  17.4 °C 57.7 °F /  14.3 °C 29.9in /  1012.0hPa NE 3.4mph /  5.5km/h 9.2mph /  14.8km/h 82% 0in /  0.0mm
02:54 63.3 °F /  17.4 °C 57.9 °F /  14.4 °C 29.9in /  1011.9hPa NE 4mph /  6.5km/h 9mph /  14.5km/h 82.4% 0in /  0.0mm
02:59 63.3 °F /  17.4 °C 58.1 °F /  14.5 °C 29.9in /  1011.9hPa NE 4mph /  6.5km/h 7mph /  11.3km/h 83% 0in /  0.0mm
03:04 63.3 °F /  17.4 °C 58.1 °F /  14.5 °C 29.9in /  1011.9hPa NE 4mph /  6.5km/h 6mph /  9.7km/h 83% 0in /  0.0mm
03:09 63.3 °F /  17.4 °C 58.1 °F /  14.5 °C 29.9in /  1011.7hPa NNE 3.7mph /  5.9km/h 6mph /  9.7km/h 83% 0in /  0.0mm
03:14 63.3 °F /  17.4 °C 57.7 °F /  14.3 °C 29.9in /  1011.7hPa NNE 3.1mph /  5km/h 5.9mph /  9.5km/h 82.1% 0in /  0.0mm
03:19 63.1 °F /  17.3 °C 57.6 °F /  14.2 °C 29.9in /  1011.8hPa NNE 3.1mph /  5km/h 6mph /  9.7km/h 82% 0in /  0.0mm
03:24 63.1 °F /  17.3 °C 57.6 °F /  14.2 °C 29.9in /  1011.8hPa NNE 3.1mph /  5km/h 5mph /  8km/h 82.1% 0in /  0.0mm
03:29 63.3 °F /  17.4 °C 57.7 °F /  14.3 °C 29.9in /  1011.8hPa NE 2.9mph /  4.6km/h 5mph /  8km/h 82% 0in /  0.0mm
03:34 63.3 °F /  17.4 °C 57.7 °F /  14.3 °C 29.9in /  1011.8hPa NNE 2.4mph /  3.9km/h 5mph /  8km/h 82% 0in /  0.0mm
03:39 63.3 °F /  17.4 °C 57.7 °F /  14.3 °C 29.9in /  1011.8hPa North 2.2mph /  3.6km/h 5mph /  8km/h 82% 0in /  0.0mm
03:44 63.3 °F /  17.4 °C 57.4 °F /  14.1 °C 29.9in /  1011.8hPa NNE 2mph /  3.2km/h 5.8mph /  9.3km/h 81.1% 0in /  0.0mm
03:49 63.3 °F /  17.4 °C 57.6 °F /  14.2 °C 29.9in /  1011.8hPa NNE 2.3mph /  3.7km/h 6mph /  9.7km/h 81.3% 0in /  0.0mm
03:54 63.3 °F /  17.4 °C 57.4 °F /  14.1 °C 29.9in /  1011.6hPa NNE 2.9mph /  4.7km/h 6mph /  9.7km/h 81% 0in /  0.0mm
03:59 63.3 °F /  17.4 °C 57.4 °F /  14.1 °C 29.9in /  1011.6hPa North 3mph /  4.8km/h 5.2mph /  8.4km/h 81% 0in /  0.0mm
04:04 63.3 °F /  17.4 °C 57.4 °F /  14.1 °C 29.9in /  1011.7hPa NNE 3.1mph /  5km/h 5mph /  8km/h 81% 0in /  0.0mm
04:09 63.3 °F /  17.4 °C 57.4 °F /  14.1 °C 29.9in /  1011.7hPa NE 3mph /  4.9km/h 5mph /  8km/h 81% 0in /  0.0mm
04:14 63.3 °F /  17.4 °C 57.4 °F /  14.1 °C 29.9in /  1011.7hPa NE 2.9mph /  4.7km/h 5mph /  8km/h 81% 0in /  0.0mm
04:19 63.3 °F /  17.4 °C 57.4 °F /  14.1 °C 29.9in /  1011.7hPa NE 2.7mph /  4.3km/h 5mph /  8km/h 81% 0in /  0.0mm
04:24 63.3 °F /  17.4 °C 57.4 °F /  14.1 °C 29.9in /  1011.7hPa NE 2.4mph /  3.9km/h 4.7mph /  7.6km/h 81% 0in /  0.0mm
04:29 63.3 °F /  17.4 °C 57.4 °F /  14.1 °C 29.9in /  1011.7hPa NE 2.2mph /  3.6km/h 5mph /  8km/h 81% 0in /  0.0mm
04:34 63.3 °F /  17.4 °C 57.6 °F /  14.2 °C 29.9in /  1011.7hPa NNE 2mph /  3.2km/h 4.6mph /  7.4km/h 81% 0in /  0.0mm
04:39 63.5 °F /  17.5 °C 57.6 °F /  14.2 °C 29.9in /  1011.6hPa NNE 2mph /  3.2km/h 5mph /  8km/h 81% 0in /  0.0mm
04:44 63.5 °F /  17.5 °C 57.6 °F /  14.2 °C 29.9in /  1011.6hPa NNE 2mph /  3.2km/h 5mph /  8km/h 81% 0in /  0.0mm
04:49 63.5 °F /  17.5 °C 57.6 °F /  14.2 °C 29.9in /  1011.6hPa NNE 2.2mph /  3.5km/h 5mph /  8km/h 81% 0in /  0.0mm
04:54 63.5 °F /  17.5 °C 57.6 °F /  14.2 °C 29.9in /  1011.5hPa NNE 2.4mph /  3.9km/h 4mph /  6.4km/h 81% 0in /  0.0mm
04:59 63.5 °F /  17.5 °C 57.6 °F /  14.2 °C 29.9in /  1011.5hPa NE 2.2mph /  3.5km/h 4mph /  6.4km/h 81% 0in /  0.0mm
05:04 63.5 °F /  17.5 °C 57.6 °F /  14.2 °C 29.9in /  1011.5hPa NE 1.8mph /  2.9km/h 4.3mph /  6.9km/h 81% 0in /  0.0mm
05:09 63.5 °F /  17.5 °C 57.6 °F /  14.2 °C 29.9in /  1011.5hPa North 1.8mph /  2.9km/h 5.2mph /  8.4km/h 81% 0in /  0.0mm
05:14 63.3 °F /  17.4 °C 57.4 °F /  14.1 °C 29.9in /  1011.5hPa NNE 1.8mph /  2.9km/h 5mph /  8km/h 81% 0in /  0.0mm
05:19 63.3 °F /  17.4 °C 57.4 °F /  14.1 °C 29.9in /  1011.5hPa NE 1.9mph /  3km/h 4.6mph /  7.4km/h 81% 0in /  0.0mm
05:24 63.3 °F /  17.4 °C 57.4 °F /  14.1 °C 29.9in /  1011.5hPa ENE 2mph /  3.2km/h 5mph /  8km/h 81% 0in /  0.0mm
05:29 63.3 °F /  17.4 °C 57.4 °F /  14.1 °C 29.9in /  1011.5hPa ENE 2.2mph /  3.5km/h 5mph /  8km/h 81% 0in /  0.0mm
05:34 63.3 °F /  17.4 °C 57.4 °F /  14.1 °C 29.9in /  1011.5hPa NE 2.4mph /  3.9km/h 5mph /  8km/h 81% 0in /  0.0mm
05:39 63.3 °F /  17.4 °C 57.4 °F /  14.1 °C 29.9in /  1011.4hPa NNE 2.2mph /  3.5km/h 5mph /  8km/h 81% 0in /  0.0mm
05:44 63.3 °F /  17.4 °C 57.4 °F /  14.1 °C 29.9in /  1011.4hPa NNE 1.8mph /  2.9km/h 2mph /  3.2km/h 81% 0in /  0.0mm
05:49 63.3 °F /  17.4 °C 57.4 °F /  14.1 °C 29.9in /  1011.4hPa NNE 1.1mph /  1.8km/h   81% 0in /  0.0mm
05:54 63.3 °F /  17.4 °C 57.6 °F /  14.2 °C 29.9in /  1011.3hPa Calm     81% 0in /  0.0mm
05:59 63.5 °F /  17.5 °C 57.6 °F /  14.2 °C 29.9in /  1011.3hPa Calm     81% 0in /  0.0mm
06:04 63.5 °F /  17.5 °C 57.6 °F /  14.2 °C 29.9in /  1011.3hPa Calm   3.6mph /  5.8km/h 81% 0in /  0.0mm
06:09 63.7 °F /  17.6 °C 57.7 °F /  14.3 °C 29.9in /  1011.2hPa Calm   4mph /  6.4km/h 81% 0in /  0.0mm
06:14 63.7 °F /  17.6 °C 57.7 °F /  14.3 °C 29.9in /  1011.2hPa Calm   2.3mph /  3.7km/h 81% 0in /  0.0mm
06:19 63.7 °F /  17.6 °C 57.7 °F /  14.3 °C 29.9in /  1011.2hPa NNO 0.6mph /  0.9km/h 4.6mph /  7.4km/h 81% 0in /  0.0mm
06:24 63.7 °F /  17.6 °C 57.7 °F /  14.3 °C 29.9in /  1011.2hPa NE 1.4mph /  2.2km/h 5.2mph /  8.4km/h 81% 0in /  0.0mm
06:29 63.7 °F /  17.6 °C 57.7 °F /  14.3 °C 29.9in /  1011.2hPa NE 1.6mph /  2.5km/h 5mph /  8km/h 81% 0in /  0.0mm
06:34 63.5 °F /  17.5 °C 57.6 °F /  14.2 °C 29.9in /  1011.3hPa NE 1.8mph /  2.9km/h 5.4mph /  8.7km/h 81% 0in /  0.0mm
06:39 63.7 °F /  17.6 °C 57.7 °F /  14.3 °C 29.9in /  1011.3hPa NNE 2.3mph /  3.7km/h 6.2mph /  10km/h 81% 0in /  0.0mm
06:44 63.7 °F /  17.6 °C 57.7 °F /  14.3 °C 29.9in /  1011.3hPa NNE 3.1mph /  5km/h 6.2mph /  10km/h 81% 0in /  0.0mm
06:49 63.7 °F /  17.6 °C 57.7 °F /  14.3 °C 29.9in /  1011.3hPa NNE 3.3mph /  5.3km/h 6.9mph /  11.1km/h 81% 0in /  0.0mm
06:54 63.7 °F /  17.6 °C 57.9 °F /  14.4 °C 29.9in /  1011.3hPa NE 3.6mph /  5.8km/h 9.2mph /  14.8km/h 81.4% 0in /  0.0mm
06:59 63.7 °F /  17.6 °C 58.1 °F /  14.5 °C 29.9in /  1011.3hPa NE 3.7mph /  6km/h 9mph /  14.5km/h 82% 0in /  0.0mm
07:04 63.7 °F /  17.6 °C 57.9 °F /  14.4 °C 29.9in /  1011.3hPa NNE 4mph /  6.5km/h 7mph /  11.3km/h 82% 0in /  0.0mm
07:09 63.5 °F /  17.5 °C 57.9 °F /  14.4 °C 29.9in /  1011.3hPa NNE 4.1mph /  6.6km/h 7mph /  11.3km/h 82% 0in /  0.0mm
07:14 63.5 °F /  17.5 °C 58.3 °F /  14.6 °C 29.9in /  1011.3hPa NNE 4.3mph /  6.9km/h 7mph /  11.3km/h 82.9% 0in /  0.0mm
07:19 63.7 °F /  17.6 °C 58.5 °F /  14.7 °C 29.9in /  1011.3hPa NNE 3.9mph /  6.2km/h 6.2mph /  10km/h 83% 0in /  0.0mm
07:24 63.7 °F /  17.6 °C 58.5 °F /  14.7 °C 29.9in /  1011.3hPa NE 3.1mph /  5km/h 6mph /  9.7km/h 83% 0in /  0.0mm
07:29 63.7 °F /  17.6 °C 58.5 °F /  14.7 °C 29.9in /  1011.3hPa NE 3.1mph /  5km/h 5.8mph /  9.3km/h 83% 0in /  0.0mm
07:34 63.7 °F /  17.6 °C 58.5 °F /  14.7 °C 29.9in /  1011.3hPa NE 3.1mph /  5km/h 6.4mph /  10.3km/h 83% 0in /  0.0mm
07:39 63.7 °F /  17.6 °C 58.5 °F /  14.7 °C 29.9in /  1011.3hPa ENE 3.1mph /  5km/h 7mph /  11.3km/h 83% 0in /  0.0mm
07:44 63.9 °F /  17.7 °C 58.8 °F /  14.9 °C 29.9in /  1011.3hPa ENE 3.1mph /  5km/h 7mph /  11.3km/h 83.9% 0in /  0.0mm
07:49 63.9 °F /  17.7 °C 58.8 °F /  14.9 °C 29.9in /  1011.4hPa NE 3.1mph /  5km/h 6mph /  9.7km/h 84% 0in /  0.0mm
07:54 63.9 °F /  17.7 °C 59 °F /  15 °C 29.9in /  1011.4hPa NE 3.1mph /  5km/h 5mph /  8km/h 84% 0in /  0.0mm
07:59 64 °F /  17.8 °C 58.8 °F /  14.9 °C 29.9in /  1011.4hPa NNE 3mph /  4.9km/h 5.2mph /  8.4km/h 83.3% 0in /  0.0mm
08:04 64.2 °F /  17.9 °C 59 °F /  15 °C 29.9in /  1011.5hPa NNE 2.9mph /  4.7km/h 8.1mph /  13km/h 83% 0in /  0.0mm
08:09 64.6 °F /  18.1 °C 59 °F /  15 °C 29.9in /  1011.5hPa NNE 3.6mph /  5.8km/h 9.2mph /  14.8km/h 82.1% 0in /  0.0mm
08:14 64.9 °F /  18.3 °C 59 °F /  15 °C 29.9in /  1011.5hPa NE 4.7mph /  7.6km/h 9mph /  14.5km/h 81.2% 0in /  0.0mm
08:19 65.3 °F /  18.5 °C 59.2 °F /  15.1 °C 29.9in /  1011.5hPa NNE 4.7mph /  7.6km/h 8.5mph /  13.7km/h 80.7% 0in /  0.0mm
08:24 65.5 °F /  18.6 °C 58.8 °F /  14.9 °C 29.9in /  1011.5hPa NE 4.7mph /  7.6km/h 10.4mph /  16.7km/h 79% 0in /  0.0mm
08:29 65.7 °F /  18.7 °C 58.6 °F /  14.8 °C 29.9in /  1011.5hPa NE 5mph /  8km/h 10.4mph /  16.7km/h 77.9% 0in /  0.0mm
08:34 65.7 °F /  18.7 °C 58.3 °F /  14.6 °C 29.9in /  1011.5hPa NE 5.4mph /  8.7km/h 10.4mph /  16.7km/h 77.4% 0in /  0.0mm
08:39 65.7 °F /  18.7 °C 58.5 °F /  14.7 °C 29.9in /  1011.5hPa ENE 5.6mph /  9km/h 10mph /  16.1km/h 77.8% 0in /  0.0mm
08:44 65.8 °F /  18.8 °C 58.3 °F /  14.6 °C 29.9in /  1011.5hPa NE 5.9mph /  9.5km/h 9mph /  14.5km/h 76.6% 0in /  0.0mm
08:49 65.8 °F /  18.8 °C 58.1 °F /  14.5 °C 29.9in /  1011.6hPa NE 5.7mph /  9.2km/h 9mph /  14.5km/h 75.9% 0in /  0.0mm
08:54 66 °F /  18.9 °C 57.6 °F /  14.2 °C 29.9in /  1011.6hPa NE 5.4mph /  8.7km/h 8.1mph /  13km/h 74.2% 0in /  0.0mm
08:59 66.4 °F /  19.1 °C 57.6 °F /  14.2 °C 29.9in /  1011.6hPa NE 5.3mph /  8.6km/h 9.7mph /  15.6km/h 73.5% 0in /  0.0mm
09:04 66.4 °F /  19.1 °C 57.4 °F /  14.1 °C 29.9in /  1011.6hPa NE 5.2mph /  8.4km/h 10mph /  16.1km/h 72.6% 0in /  0.0mm
09:09 66.6 °F /  19.2 °C 57.2 °F /  14 °C 29.9in /  1011.5hPa ENE 4.8mph /  7.8km/h 8.5mph /  13.7km/h 71.6% 0in /  0.0mm
09:14 67.1 °F /  19.5 °C 56.7 °F /  13.7 °C 29.9in /  1011.5hPa ENE 4.3mph /  6.9km/h 9mph /  14.5km/h 69.3% 0in /  0.0mm
09:19 67.5 °F /  19.7 °C 57.2 °F /  14 °C 29.9in /  1011.5hPa ENE 3.9mph /  6.2km/h 8.5mph /  13.7km/h 69.4% 0in /  0.0mm
09:24 67.6 °F /  19.8 °C 57.7 °F /  14.3 °C 29.9in /  1011.5hPa NE 3.1mph /  5km/h 9mph /  14.5km/h 70.5% 0in /  0.0mm
09:29 67.6 °F /  19.8 °C 57.6 °F /  14.2 °C 29.9in /  1011.5hPa NE 3.5mph /  5.7km/h 9.7mph /  15.6km/h 70% 0in /  0.0mm
09:34 67.5 °F /  19.7 °C 57.2 °F /  14 °C 29.9in /  1011.5hPa NNE 4.3mph /  6.9km/h 10mph /  16.1km/h 69.7% 0in /  0.0mm
09:39 67.5 °F /  19.7 °C 57.6 °F /  14.2 °C 29.9in /  1011.4hPa NNE 4.2mph /  6.8km/h 7.4mph /  11.9km/h 70.2% 0in /  0.0mm
09:44 67.8 °F /  19.9 °C 57.4 °F /  14.1 °C 29.9in /  1011.4hPa NE 4mph /  6.5km/h 7mph /  11.3km/h 69.2% 0in /  0.0mm
09:49 68.2 °F /  20.1 °C 57.2 °F /  14 °C 29.9in /  1011.4hPa NE 3.9mph /  6.2km/h 9.2mph /  14.8km/h 67.9% 0in /  0.0mm
09:54 68.4 °F /  20.2 °C 57.2 °F /  14 °C 29.9in /  1011.3hPa NE 3.6mph /  5.8km/h 9mph /  14.5km/h 67.7% 0in /  0.0mm
09:59 68.4 °F /  20.2 °C 57.4 °F /  14.1 °C 29.9in /  1011.3hPa ENE 3.6mph /  5.8km/h 7.4mph /  11.9km/h 67.8% 0in /  0.0mm
10:04 68.5 °F /  20.3 °C 56.7 °F /  13.7 °C 29.9in /  1011.3hPa NE 3.6mph /  5.8km/h 8.1mph /  13km/h 65.8% 0in /  0.0mm
10:09 68.7 °F /  20.4 °C 56.1 °F /  13.4 °C 29.9in /  1011.2hPa NNE 3.9mph /  6.2km/h 9.2mph /  14.8km/h 63.9% 0in /  0.0mm
10:14 68.7 °F /  20.4 °C 55.9 °F /  13.3 °C 29.9in /  1011.2hPa NE 4.3mph /  6.9km/h 9.7mph /  15.6km/h 63.9% 0in /  0.0mm
10:19 68.5 °F /  20.3 °C 55.4 °F /  13 °C 29.9in /  1011.2hPa NE 4.7mph /  7.6km/h 10mph /  16.1km/h 63% 0in /  0.0mm
10:24 68.7 °F /  20.4 °C 55.4 °F /  13 °C 29.9in /  1011.0hPa NE 5.4mph /  8.7km/h 9mph /  14.5km/h 62.3% 0in /  0.0mm
10:29 69.3 °F /  20.7 °C 55.6 °F /  13.1 °C 29.9in /  1011.0hPa NE 5.3mph /  8.6km/h 8.1mph /  13km/h 61.8% 0in /  0.0mm
10:34 69.6 °F /  20.9 °C 55.6 °F /  13.1 °C 29.9in /  1011.0hPa NE 5.2mph /  8.4km/h 9.2mph /  14.8km/h 61% 0in /  0.0mm
10:39 69.8 °F /  21 °C 54.9 °F /  12.7 °C 29.9in /  1011.0hPa ENE 5mph /  8.1km/h 10.2mph /  16.4km/h 59% 0in /  0.0mm
10:44 70 °F /  21.1 °C 54.7 °F /  12.6 °C 29.9in /  1011.0hPa NE 4.7mph /  7.6km/h 11.2mph /  18km/h 58.5% 0in /  0.0mm
10:49 69.6 °F /  20.9 °C 53.8 °F /  12.1 °C 29.9in /  1011.0hPa ENE 5mph /  8km/h 11mph /  17.7km/h 56.9% 0in /  0.0mm
10:54 70 °F /  21.1 °C 53.1 °F /  11.7 °C 29.9in /  1010.8hPa Este 5.4mph /  8.7km/h 10.7mph /  17.2km/h 54.9% 0in /  0.0mm
10:59 70.3 °F /  21.3 °C 53.2 °F /  11.8 °C 29.9in /  1010.8hPa ENE 5.4mph /  8.7km/h 11mph /  17.7km/h 54.8% 0in /  0.0mm
11:04 70.3 °F /  21.3 °C 52.9 °F /  11.6 °C 29.9in /  1010.9hPa NNE 5.4mph /  8.7km/h 10.4mph /  16.7km/h 53.6% 0in /  0.0mm
11:09 70.2 °F /  21.2 °C 52.9 °F /  11.6 °C 29.9in /  1010.9hPa NE 5.4mph /  8.7km/h 10mph /  16.1km/h 54.3% 0in /  0.0mm
11:14 70.5 °F /  21.4 °C 52.3 °F /  11.3 °C 29.9in /  1010.9hPa NE 5.4mph /  8.7km/h 10.4mph /  16.7km/h 52.5% 0in /  0.0mm
11:19 70.9 °F /  21.6 °C 53.1 °F /  11.7 °C 29.9in /  1010.9hPa NNE 5.5mph /  8.9km/h 10mph /  16.1km/h 53.5% 0in /  0.0mm
11:24 71.1 °F /  21.7 °C 53.1 °F /  11.7 °C 29.8in /  1010.7hPa NNE 5.9mph /  9.5km/h 9mph /  14.5km/h 52.9% 0in /  0.0mm
11:29 71.4 °F /  21.9 °C 52.9 °F /  11.6 °C 29.8in /  1010.7hPa NE 5.1mph /  8.2km/h 14.5mph /  23.3km/h 52.1% 0in /  0.0mm
11:34 71.6 °F /  22 °C 50.4 °F /  10.2 °C 29.8in /  1010.7hPa ENE 3.6mph /  5.8km/h 15mph /  24.1km/h 46.9% 0in /  0.0mm
11:39 72 °F /  22.2 °C 50.2 °F /  10.1 °C 29.8in /  1010.6hPa NE 4.3mph /  6.9km/h 12mph /  19.3km/h 46.2% 0in /  0.0mm
11:44 72 °F /  22.2 °C 50.7 °F /  10.4 °C 29.8in /  1010.6hPa NE 5.4mph /  8.7km/h 9.7mph /  15.6km/h 47.1% 0in /  0.0mm
11:49 72.1 °F /  22.3 °C 51.1 °F /  10.6 °C 29.8in /  1010.6hPa NE 5.6mph /  9km/h 15.6mph /  25.1km/h 47.3% 0in /  0.0mm
11:54 72 °F /  22.2 °C 50.5 °F /  10.3 °C 29.8in /  1010.4hPa NE 5.9mph /  9.5km/h 16.1mph /  25.9km/h 47% 0in /  0.0mm
11:59 71.8 °F /  22.1 °C 50.5 °F /  10.3 °C 29.8in /  1010.4hPa NE 6.8mph /  10.9km/h 16mph /  25.7km/h 47% 0in /  0.0mm
12:04 72 °F /  22.2 °C 50.2 °F /  10.1 °C 29.8in /  1010.4hPa ENE 8.1mph /  13km/h 15mph /  24.1km/h 46.3% 0in /  0.0mm
12:09 72.1 °F /  22.3 °C 50.2 °F /  10.1 °C 29.8in /  1010.3hPa NE 7.3mph /  11.7km/h 15mph /  24.1km/h 45.8% 0in /  0.0mm
12:14 72.3 °F /  22.4 °C 50.5 °F /  10.3 °C 29.8in /  1010.3hPa NE 5.9mph /  9.5km/h 12.3mph /  19.8km/h 46.2% 0in /  0.0mm
12:19 72.5 °F /  22.5 °C 50.9 °F /  10.5 °C 29.8in /  1010.3hPa NE 6.3mph /  10.1km/h 13.8mph /  22.2km/h 46.7% 0in /  0.0mm
12:24 72.7 °F /  22.6 °C 51.1 °F /  10.6 °C 29.8in /  1010.1hPa NE 6.9mph /  11.1km/h 16.1mph /  25.9km/h 46.5% 0in /  0.0mm
12:29 72.9 °F /  22.7 °C 51.1 °F /  10.6 °C 29.8in /  1010.1hPa NE 7.6mph /  12.2km/h 16.1mph /  25.9km/h 46.2% 0in /  0.0mm
12:34 73 °F /  22.8 °C 50.9 °F /  10.5 °C 29.8in /  1010.1hPa ENE 8.7mph /  14km/h 16mph /  25.7km/h 46% 0in /  0.0mm
12:39 73.2 °F /  22.9 °C 51.1 °F /  10.6 °C 29.8in /  1010.0hPa NNE 7.8mph /  12.5km/h 14.7mph /  23.7km/h 45.9% 0in /  0.0mm
12:44 73.2 °F /  22.9 °C 51.3 °F /  10.7 °C 29.8in /  1010.0hPa NE 6.2mph /  10km/h 15mph /  24.1km/h 46% 0in /  0.0mm
12:49 73 °F /  22.8 °C 51.4 °F /  10.8 °C 29.8in /  1010.0hPa NE 7.1mph /  11.5km/h 15.2mph /  24.5km/h 46.7% 0in /  0.0mm
12:54 72.9 °F /  22.7 °C 51.6 °F /  10.9 °C 29.8in /  1009.7hPa NE 8.7mph /  14km/h 16.1mph /  25.9km/h 47.4% 0in /  0.0mm
12:59 72.9 °F /  22.7 °C 52 °F /  11.1 °C 29.8in /  1009.7hPa NE 8.4mph /  13.6km/h 16mph /  25.7km/h 48% 0in /  0.0mm
13:04 73.4 °F /  23 °C 52.5 °F /  11.4 °C 29.8in /  1009.7hPa NE 8.1mph /  13km/h 14mph /  22.5km/h 48% 0in /  0.0mm
13:09 73.9 °F /  23.3 °C 52.9 °F /  11.6 °C 29.8in /  1009.6hPa NE 7.6mph /  12.3km/h 14mph /  22.5km/h 47.9% 0in /  0.0mm
13:14 73.9 °F /  23.3 °C 52.5 °F /  11.4 °C 29.8in /  1009.6hPa NE 6.9mph /  11.1km/h 14mph /  22.5km/h 47.2% 0in /  0.0mm
13:19 73.4 °F /  23 °C 52.7 °F /  11.5 °C 29.8in /  1009.6hPa NE 7.6mph /  12.2km/h 16.1mph /  25.9km/h 48.2% 0in /  0.0mm
13:24 73.2 °F /  22.9 °C 53.2 °F /  11.8 °C 29.8in /  1009.5hPa NE 8.7mph /  14km/h 16mph /  25.7km/h 49.6% 0in /  0.0mm
13:29 73.8 °F /  23.2 °C 53.6 °F /  12 °C 29.8in /  1009.5hPa ENE 8.6mph /  13.9km/h 16.3mph /  26.2km/h 49.3% 0in /  0.0mm
13:34 73.9 °F /  23.3 °C 53.6 °F /  12 °C 29.8in /  1009.5hPa NE 8.5mph /  13.7km/h 16mph /  25.7km/h 49.2% 0in /  0.0mm
13:39 73.8 °F /  23.2 °C 53.4 °F /  11.9 °C 29.8in /  1009.3hPa ENE 8.5mph /  13.7km/h 15mph /  24.1km/h 49% 0in /  0.0mm
13:44 73.8 °F /  23.2 °C 53.2 °F /  11.8 °C 29.8in /  1009.3hPa NE 8.5mph /  13.7km/h 23mph /  37km/h 48.8% 0in /  0.0mm
13:49 73.2 °F /  22.9 °C 53.4 °F /  11.9 °C 29.8in /  1009.3hPa NE 9.1mph /  14.7km/h 23mph /  37km/h 49.7% 0in /  0.0mm
13:54 73.6 °F /  23.1 °C 53.4 °F /  11.9 °C 29.8in /  1009.1hPa ENE 10.2mph /  16.4km/h 20mph /  32.2km/h 49.3% 0in /  0.0mm
13:59 73.9 °F /  23.3 °C 54 °F /  12.2 °C 29.8in /  1009.1hPa NE 9.5mph /  15.3km/h 16mph /  25.7km/h 49.6% 0in /  0.0mm
14:04 74.1 °F /  23.4 °C 53.6 °F /  12 °C 29.8in /  1009.1hPa NE 8.5mph /  13.7km/h 17.3mph /  27.8km/h 48.9% 0in /  0.0mm
14:09 73.9 °F /  23.3 °C 53.6 °F /  12 °C 29.8in /  1008.8hPa NE 8.9mph /  14.4km/h 17mph /  27.4km/h 49.1% 0in /  0.0mm
14:14 74.1 °F /  23.4 °C 54.1 °F /  12.3 °C 29.8in /  1008.8hPa NE 9.7mph /  15.6km/h 17.5mph /  28.2km/h 49.7% 0in /  0.0mm
14:19 74.1 °F /  23.4 °C 54.1 °F /  12.3 °C 29.8in /  1008.8hPa NE 9.3mph /  15km/h 17.3mph /  27.8km/h 49.6% 0in /  0.0mm
14:24 73.9 °F /  23.3 °C 54.3 °F /  12.4 °C 29.8in /  1008.8hPa NE 8.7mph /  14km/h 19.7mph /  31.7km/h 50.1% 0in /  0.0mm
14:29 74.3 °F /  23.5 °C 54.3 °F /  12.4 °C 29.8in /  1008.8hPa NE 9.1mph /  14.6km/h 20mph /  32.2km/h 49.9% 0in /  0.0mm
14:34 74.5 °F /  23.6 °C 54 °F /  12.2 °C 29.8in /  1008.8hPa NE 9.7mph /  15.6km/h 20.4mph /  32.8km/h 49.1% 0in /  0.0mm
14:39 74.1 °F /  23.4 °C 54 °F /  12.2 °C 29.8in /  1008.5hPa NE 10.3mph /  16.5km/h 21mph /  33.8km/h 49.5% 0in /  0.0mm
14:44 74.1 °F /  23.4 °C 54.1 °F /  12.3 °C 29.8in /  1008.5hPa NE 11.2mph /  18km/h 18mph /  29km/h 49.8% 0in /  0.0mm
14:49 74.1 °F /  23.4 °C 54.3 °F /  12.4 °C 29.8in /  1008.5hPa NE 10.8mph /  17.4km/h 20.7mph /  33.3km/h 50% 0in /  0.0mm
14:54 74.3 °F /  23.5 °C 54.1 °F /  12.3 °C 29.8in /  1008.3hPa NE 10.2mph /  16.4km/h 26.5mph /  42.6km/h 49.4% 0in /  0.0mm
14:59 74.7 °F /  23.7 °C 52.7 °F /  11.5 °C 29.8in /  1008.3hPa ESE 10.2mph /  16.4km/h 26mph /  41.8km/h 46.2% 0in /  0.0mm
15:04 75 °F /  23.9 °C 53.1 °F /  11.7 °C 29.8in /  1008.3hPa ESE 10.2mph /  16.4km/h 18mph /  29km/h 46.2% 0in /  0.0mm
15:09 75.2 °F /  24 °C 53.1 °F /  11.7 °C 29.8in /  1008.0hPa SE 9.7mph /  15.6km/h 15mph /  24.1km/h 45.9% 0in /  0.0mm
15:14 75 °F /  23.9 °C 52.9 °F /  11.6 °C 29.8in /  1008.0hPa SE 8.7mph /  14km/h 15mph /  24.1km/h 46% 0in /  0.0mm
15:19 75.2 °F /  24 °C 53.4 °F /  11.9 °C 29.8in /  1008.0hPa ESE 8.4mph /  13.6km/h 14mph /  22.5km/h 46.6% 0in /  0.0mm
15:24 75.2 °F /  24 °C 53.6 °F /  12 °C 29.8in /  1007.7hPa ESE 8.1mph /  13km/h 15mph /  24.1km/h 47% 0in /  0.0mm
15:29 75 °F /  23.9 °C 53.8 °F /  12.1 °C 29.8in /  1007.7hPa ESE 8.1mph /  13km/h 15mph /  24.1km/h 47.4% 0in /  0.0mm
15:34 75.2 °F /  24 °C 54.1 °F /  12.3 °C 29.8in /  1007.7hPa ESE 8.1mph /  13km/h 14mph /  22.5km/h 47.7% 0in /  0.0mm
15:39 75.4 °F /  24.1 °C 54.9 °F /  12.7 °C 29.8in /  1007.5hPa ESE 7.9mph /  12.7km/h 17.5mph /  28.2km/h 48.9% 0in /  0.0mm
15:44 75.6 °F /  24.2 °C 55 °F /  12.8 °C 29.8in /  1007.5hPa ESE 7.6mph /  12.2km/h 17mph /  27.4km/h 49.1% 0in /  0.0mm
15:49 75.4 °F /  24.1 °C 55 °F /  12.8 °C 29.8in /  1007.5hPa ESE 8mph /  12.9km/h 16.3mph /  26.2km/h 49.3% 0in /  0.0mm
15:54 75.2 °F /  24 °C 55.2 °F /  12.9 °C 29.8in /  1007.5hPa ESE 8.7mph /  14km/h 16.3mph /  26.2km/h 50% 0in /  0.0mm
15:59 74.8 °F /  23.8 °C 55.2 °F /  12.9 °C 29.8in /  1007.5hPa ESE 9.1mph /  14.7km/h 16.1mph /  25.9km/h 50.5% 0in /  0.0mm
16:04 75 °F /  23.9 °C 55.6 °F /  13.1 °C 29.8in /  1007.5hPa ESE 9.7mph /  15.6km/h 15.2mph /  24.5km/h 51% 0in /  0.0mm
16:09 75 °F /  23.9 °C 55.6 °F /  13.1 °C 29.7in /  1007.2hPa SE 9.3mph /  15km/h 18.5mph /  29.8km/h 50.9% 0in /  0.0mm
16:14 74.5 °F /  23.6 °C 55.8 °F /  13.2 °C 29.7in /  1007.2hPa ESE 8.7mph /  14km/h 19mph /  30.6km/h 51.9% 0in /  0.0mm
16:19 74.3 °F /  23.5 °C 55.8 °F /  13.2 °C 29.7in /  1007.2hPa ESE 9.4mph /  15.2km/h 17mph /  27.4km/h 52.6% 0in /  0.0mm
16:24 74.7 °F /  23.7 °C 55.8 °F /  13.2 °C 29.7in /  1007.1hPa ESE 10.7mph /  17.2km/h 16mph /  25.7km/h 51.8% 0in /  0.0mm
16:29 74.8 °F /  23.8 °C 55.8 °F /  13.2 °C 29.7in /  1007.1hPa ESE 9.9mph /  15.9km/h 17.8mph /  28.6km/h 51.5% 0in /  0.0mm
16:34 74.8 °F /  23.8 °C 55.6 °F /  13.1 °C 29.7in /  1007.1hPa ESE 8.5mph /  13.7km/h 18.4mph /  29.6km/h 51.4% 0in /  0.0mm
16:39 74.7 °F /  23.7 °C 55.8 °F /  13.2 °C 29.7in /  1006.9hPa SE 9mph /  14.5km/h 18mph /  29km/h 51.9% 0in /  0.0mm
16:44 74.7 °F /  23.7 °C 55.6 °F /  13.1 °C 29.7in /  1006.9hPa SE 10mph /  16.1km/h 17mph /  27.4km/h 51.4% 0in /  0.0mm
16:49 74.8 °F /  23.8 °C 55.9 °F /  13.3 °C 29.7in /  1006.9hPa ESE 9.4mph /  15.2km/h 15mph /  24.1km/h 51.7% 0in /  0.0mm
16:54 75.2 °F /  24 °C 55.9 °F /  13.3 °C 29.7in /  1006.6hPa ESE 8.5mph /  13.7km/h 16.1mph /  25.9km/h 51.2% 0in /  0.0mm
16:59 75 °F /  23.9 °C 55.8 °F /  13.2 °C 29.7in /  1006.6hPa SE 8mph /  12.9km/h 16mph /  25.7km/h 51.1% 0in /  0.0mm
17:04 74.8 °F /  23.8 °C 55.9 °F /  13.3 °C 29.7in /  1006.6hPa ESE 7.4mph /  11.9km/h 16.1mph /  25.9km/h 51.9% 0in /  0.0mm
17:09 74.3 °F /  23.5 °C 55.9 °F /  13.3 °C 29.7in /  1006.5hPa Este 7.8mph /  12.6km/h 15mph /  24.1km/h 52.6% 0in /  0.0mm
17:14 74.1 °F /  23.4 °C 55.8 °F /  13.2 °C 29.7in /  1006.5hPa ENE 8.5mph /  13.7km/h 14mph /  22.5km/h 52.9% 0in /  0.0mm
17:19 73.8 °F /  23.2 °C 55.8 °F /  13.2 °C 29.7in /  1006.5hPa Este 7.6mph /  12.3km/h 14mph /  22.5km/h 53.1% 0in /  0.0mm
17:24 73.9 °F /  23.3 °C 55.8 °F /  13.2 °C 29.7in /  1006.3hPa Este 6.2mph /  10km/h 13mph /  20.9km/h 53% 0in /  0.0mm
17:29 74.5 °F /  23.6 °C 56.1 °F /  13.4 °C 29.7in /  1006.3hPa ESE 6.6mph /  10.7km/h 14mph /  22.5km/h 52.9% 0in /  0.0mm
17:34 74.5 °F /  23.6 °C 55.9 °F /  13.3 °C 29.7in /  1006.3hPa ESE 7.4mph /  11.9km/h 15mph /  24.1km/h 52.4% 0in /  0.0mm
17:39 74.1 °F /  23.4 °C 55.8 °F /  13.2 °C 29.7in /  1006.1hPa ESE 7.6mph /  12.3km/h 16.8mph /  27km/h 52.9% 0in /  0.0mm
17:44 73.8 °F /  23.2 °C 56.1 °F /  13.4 °C 29.7in /  1006.1hPa ESE 8.1mph /  13km/h 17.5mph /  28.2km/h 54% 0in /  0.0mm
17:49 73.6 °F /  23.1 °C 55.9 °F /  13.3 °C 29.7in /  1006.1hPa ESE 9.1mph /  14.7km/h 17mph /  27.4km/h 54.3% 0in /  0.0mm
17:54 73.6 °F /  23.1 °C 56.3 °F /  13.5 °C 29.7in /  1006.0hPa SE 10.7mph /  17.2km/h 17.3mph /  27.8km/h 55% 0in /  0.0mm
17:59 73.6 °F /  23.1 °C 56.5 °F /  13.6 °C 29.7in /  1006.0hPa SE 9.9mph /  15.9km/h 17.3mph /  27.8km/h 55% 0in /  0.0mm
18:04 73.4 °F /  23 °C 56.3 °F /  13.5 °C 29.7in /  1006.0hPa SE 8.7mph /  14km/h 17mph /  27.4km/h 55.2% 0in /  0.0mm
18:09 73.2 °F /  22.9 °C 56.7 °F /  13.7 °C 29.7in /  1006.0hPa ESE 9.3mph /  14.9km/h 17.3mph /  27.8km/h 56% 0in /  0.0mm
18:14 73.2 °F /  22.9 °C 56.7 °F /  13.7 °C 29.7in /  1006.0hPa SE 10.2mph /  16.4km/h 18.4mph /  29.6km/h 56% 0in /  0.0mm
18:19 73.6 °F /  23.1 °C 56.8 °F /  13.8 °C 29.7in /  1006.0hPa ESE 9.4mph /  15.1km/h 18mph /  29km/h 56% 0in /  0.0mm
18:24 73.2 °F /  22.9 °C 56.7 °F /  13.7 °C 29.7in /  1005.8hPa ESE 8.1mph /  13km/h 17.3mph /  27.8km/h 56.2% 0in /  0.0mm
18:29 72.9 °F /  22.7 °C 56.7 °F /  13.7 °C 29.7in /  1005.8hPa ESE 8.9mph /  14.3km/h 17mph /  27.4km/h 57% 0in /  0.0mm
18:34 72.9 °F /  22.7 °C 56.7 °F /  13.7 °C 29.7in /  1005.8hPa ESE 10.2mph /  16.4km/h 17.3mph /  27.8km/h 57% 0in /  0.0mm
18:39 72.5 °F /  22.5 °C 56.5 °F /  13.6 °C 29.7in /  1005.7hPa ESE 10.1mph /  16.3km/h 18.4mph /  29.6km/h 57% 0in /  0.0mm
18:44 72.1 °F /  22.3 °C 56.5 °F /  13.6 °C 29.7in /  1005.7hPa ESE 10mph /  16.1km/h 18.4mph /  29.6km/h 57.9% 0in /  0.0mm
18:49 72 °F /  22.2 °C 56.5 °F /  13.6 °C 29.7in /  1005.7hPa ESE 10.7mph /  17.2km/h 18.4mph /  29.6km/h 58% 0in /  0.0mm
18:54 72 °F /  22.2 °C 56.5 °F /  13.6 °C 29.7in /  1005.7hPa ESE 11.8mph /  19km/h 17mph /  27.4km/h 58.3% 0in /  0.0mm
18:59 71.8 °F /  22.1 °C 56.3 °F /  13.5 °C 29.7in /  1005.7hPa Este 11.1mph /  17.8km/h 17.5mph /  28.2km/h 58.4% 0in /  0.0mm
19:04 71.6 °F /  22 °C 56.3 °F /  13.5 °C 29.7in /  1005.7hPa ESE 10mph /  16.1km/h 17.3mph /  27.8km/h 58.5% 0in /  0.0mm
19:09 71.6 °F /  22 °C 56.1 °F /  13.4 °C 29.7in /  1005.5hPa ESE 10.3mph /  16.5km/h 16.1mph /  25.9km/h 58.2% 0in /  0.0mm
19:14 71.2 °F /  21.8 °C 56.3 °F /  13.5 °C 29.7in /  1005.5hPa ESE 10.7mph /  17.2km/h 19.6mph /  31.5km/h 59% 0in /  0.0mm
19:19 71.1 °F /  21.7 °C 56.1 °F /  13.4 °C 29.7in /  1005.5hPa ESE 10.4mph /  16.8km/h 20mph /  32.2km/h 59% 0in /  0.0mm
19:24 71.1 °F /  21.7 °C 55.9 °F /  13.3 °C 29.7in /  1005.5hPa ESE 10mph /  16.1km/h 18mph /  29km/h 59% 0in /  0.0mm
19:29 71.1 °F /  21.7 °C 55.9 °F /  13.3 °C 29.7in /  1005.5hPa ESE 9.7mph /  15.6km/h 17.3mph /  27.8km/h 59% 0in /  0.0mm
19:34 71.1 °F /  21.7 °C 55.9 °F /  13.3 °C 29.7in /  1005.5hPa ESE 9.2mph /  14.8km/h 17.8mph /  28.6km/h 59% 0in /  0.0mm
19:39 70.7 °F /  21.5 °C 55.8 °F /  13.2 °C 29.7in /  1005.4hPa ESE 9.6mph /  15.4km/h 19mph /  30.6km/h 59% 0in /  0.0mm
19:44 70.5 °F /  21.4 °C 55.9 °F /  13.3 °C 29.7in /  1005.4hPa ESE 10.2mph /  16.4km/h 19mph /  30.6km/h 59.9% 0in /  0.0mm
19:49 70.3 °F /  21.3 °C 55.8 °F /  13.2 °C 29.7in /  1005.4hPa ESE 10.1mph /  16.3km/h 18.4mph /  29.6km/h 60% 0in /  0.0mm
19:54 70.2 °F /  21.2 °C 55.8 °F /  13.2 °C 29.7in /  1005.3hPa ESE 10mph /  16.1km/h 18mph /  29km/h 60.1% 0in /  0.0mm
19:59 70.2 °F /  21.2 °C 55.6 °F /  13.1 °C 29.7in /  1005.3hPa ESE 9.9mph /  15.9km/h 17mph /  27.4km/h 60% 0in /  0.0mm
20:04 70.2 °F /  21.2 °C 55.9 °F /  13.3 °C 29.7in /  1005.3hPa ESE 9.7mph /  15.6km/h 14mph /  22.5km/h 60.7% 0in /  0.0mm
20:09 70.2 °F /  21.2 °C 55.9 °F /  13.3 °C 29.7in /  1005.1hPa ESE 9.1mph /  14.6km/h 13mph /  20.9km/h 61% 0in /  0.0mm
20:14 70 °F /  21.1 °C 55.9 °F /  13.3 °C 29.7in /  1005.1hPa ESE 8.1mph /  13km/h 13mph /  20.9km/h 61.1% 0in /  0.0mm
20:19 70 °F /  21.1 °C 56.3 °F /  13.5 °C 29.7in /  1005.2hPa ESE 7.3mph /  11.8km/h 13mph /  20.9km/h 61.7% 0in /  0.0mm
20:24 70 °F /  21.1 °C 56.5 °F /  13.6 °C 29.7in /  1005.2hPa ESE 6.2mph /  10km/h 13.8mph /  22.2km/h 62% 0in /  0.0mm
20:29 70 °F /  21.1 °C 56.7 °F /  13.7 °C 29.7in /  1005.2hPa ESE 6.5mph /  10.4km/h 14mph /  22.5km/h 62.7% 0in /  0.0mm
20:34 69.6 °F /  20.9 °C 56.8 °F /  13.8 °C 29.7in /  1005.2hPa ESE 6.9mph /  11.1km/h 11.5mph /  18.5km/h 63.5% 0in /  0.0mm
20:39 69.6 °F /  20.9 °C 57 °F /  13.9 °C 29.7in /  1005.1hPa ESE 6.6mph /  10.7km/h 12mph /  19.3km/h 64.3% 0in /  0.0mm
20:44 69.3 °F /  20.7 °C 57 °F /  13.9 °C 29.7in /  1005.1hPa ESE 6.2mph /  10km/h 13mph /  20.9km/h 65% 0in /  0.0mm
20:49 69.4 °F /  20.8 °C 57.2 °F /  14 °C 29.7in /  1005.1hPa ESE 6.2mph /  10km/h 13mph /  20.9km/h 65% 0in /  0.0mm
20:54 69.3 °F /  20.7 °C 57.2 °F /  14 °C 29.7in /  1005.1hPa ESE 6.2mph /  10km/h 15.2mph /  24.5km/h 65.4% 0in /  0.0mm
20:59 69.3 °F /  20.7 °C 57.2 °F /  14 °C 29.7in /  1005.1hPa ESE 6.3mph /  10.1km/h 15mph /  24.1km/h 66% 0in /  0.0mm
21:04 69.1 °F /  20.6 °C 57.2 °F /  14 °C 29.7in /  1005.1hPa SE 6.4mph /  10.3km/h 8.5mph /  13.7km/h 66.1% 0in /  0.0mm
21:09 69.1 °F /  20.6 °C 57.2 °F /  14 °C 29.7in /  1004.9hPa SE 5.5mph /  8.8km/h 10.4mph /  16.7km/h 66% 0in /  0.0mm
21:14 69.1 °F /  20.6 °C 57.2 °F /  14 °C 29.7in /  1004.9hPa SE 4mph /  6.5km/h 10.4mph /  16.7km/h 66% 0in /  0.0mm
21:19 68.7 °F /  20.4 °C 57 °F /  13.9 °C 29.7in /  1004.9hPa ESE 4.5mph /  7.2km/h 9mph /  14.5km/h 66% 0in /  0.0mm
21:24 68.7 °F /  20.4 °C 56.8 °F /  13.8 °C 29.7in /  1004.8hPa SE 5.2mph /  8.4km/h 8mph /  12.9km/h 66% 0in /  0.0mm
21:29 68.5 °F /  20.3 °C 56.8 °F /  13.8 °C 29.7in /  1004.8hPa ESE 4.3mph /  7km/h 6.9mph /  11.1km/h 66% 0in /  0.0mm
21:34 68.5 °F /  20.3 °C 56.8 °F /  13.8 °C 29.7in /  1004.9hPa SE 2.9mph /  4.7km/h 8.5mph /  13.7km/h 66.3% 0in /  0.0mm
21:39 68.4 °F /  20.2 °C 57 °F /  13.9 °C 29.7in /  1004.9hPa SE 3.7mph /  6km/h 9mph /  14.5km/h 66.9% 0in /  0.0mm
21:44 68.4 °F /  20.2 °C 57 °F /  13.9 °C 29.7in /  1004.9hPa ESE 5.2mph /  8.4km/h 8.1mph /  13km/h 67% 0in /  0.0mm
21:49 68.4 °F /  20.2 °C 57 °F /  13.9 °C 29.7in /  1004.9hPa ESE 4.4mph /  7.1km/h 8.1mph /  13km/h 67% 0in /  0.0mm
21:54 68.2 °F /  20.1 °C 56.8 °F /  13.8 °C 29.7in /  1004.9hPa SE 3.1mph /  5km/h 8mph /  12.9km/h 67% 0in /  0.0mm
21:59 68 °F /  20 °C 56.7 °F /  13.7 °C 29.7in /  1004.9hPa ESE 3.5mph /  5.6km/h 7mph /  11.3km/h 67% 0in /  0.0mm
22:04 67.6 °F /  19.8 °C 56.5 °F /  13.6 °C 29.7in /  1004.9hPa Este 4mph /  6.5km/h 7mph /  11.3km/h 67.2% 0in /  0.0mm
22:09 67.5 °F /  19.7 °C 56.5 °F /  13.6 °C 29.7in /  1004.9hPa NE 4mph /  6.5km/h 7mph /  11.3km/h 68% 0in /  0.0mm
22:14 67.5 °F /  19.7 °C 56.5 °F /  13.6 °C 29.7in /  1004.9hPa ENE 4mph /  6.5km/h 6mph /  9.7km/h 68% 0in /  0.0mm
22:19 67.3 °F /  19.6 °C 56.5 °F /  13.6 °C 29.7in /  1004.9hPa ENE 3.4mph /  5.5km/h 5.2mph /  8.4km/h 68% 0in /  0.0mm
22:24 67.3 °F /  19.6 °C 56.5 °F /  13.6 °C 29.7in /  1004.9hPa NE 2.4mph /  3.9km/h 5mph /  8km/h 68% 0in /  0.0mm
22:29 67.3 °F /  19.6 °C 56.3 °F /  13.5 °C 29.7in /  1004.9hPa ENE 2.4mph /  3.9km/h 5mph /  8km/h 68% 0in /  0.0mm
22:34 67.1 °F /  19.5 °C 56.5 °F /  13.6 °C 29.7in /  1004.9hPa NE 2.4mph /  3.9km/h 6.2mph /  10km/h 68.8% 0in /  0.0mm
22:39 66.7 °F /  19.3 °C 56.3 °F /  13.5 °C 29.7in /  1004.9hPa NE 2.9mph /  4.6km/h 6.2mph /  10km/h 69% 0in /  0.0mm
22:44 66.6 °F /  19.2 °C 56.3 °F /  13.5 °C 29.7in /  1004.9hPa NE 3.6mph /  5.8km/h 6mph /  9.7km/h 69.6% 0in /  0.0mm
22:49 66.4 °F /  19.1 °C 56.1 °F /  13.4 °C 29.7in /  1004.9hPa NE 3.6mph /  5.8km/h 6.2mph /  10km/h 69.5% 0in /  0.0mm
22:54 66 °F /  18.9 °C 56.1 °F /  13.4 °C 29.7in /  1004.9hPa NNE 3.6mph /  5.8km/h 6.9mph /  11.1km/h 70% 0in /  0.0mm
22:59 65.8 °F /  18.8 °C 56.1 °F /  13.4 °C 29.7in /  1004.9hPa NE 3.7mph /  6km/h 7.4mph /  11.9km/h 70.5% 0in /  0.0mm
23:04 65.7 °F /  18.7 °C 56.1 °F /  13.4 °C 29.7in /  1004.9hPa NE 4mph /  6.5km/h 7mph /  11.3km/h 71% 0in /  0.0mm
23:09 65.7 °F /  18.7 °C 55.9 °F /  13.3 °C 29.7in /  1004.9hPa NE 4.1mph /  6.6km/h 7mph /  11.3km/h 71% 0in /  0.0mm
23:14 65.7 °F /  18.7 °C 56.3 °F /  13.5 °C 29.7in /  1004.9hPa NE 4.3mph /  6.9km/h 6mph /  9.7km/h 71.9% 0in /  0.0mm
23:19 65.5 °F /  18.6 °C 56.3 °F /  13.5 °C 29.7in /  1004.9hPa NE 4.2mph /  6.7km/h 9.2mph /  14.8km/h 72% 0in /  0.0mm
23:24 65.5 °F /  18.6 °C 56.5 °F /  13.6 °C 29.7in /  1004.8hPa NE 4mph /  6.5km/h 9mph /  14.5km/h 72.7% 0in /  0.0mm
23:29 65.1 °F /  18.4 °C 56.3 °F /  13.5 °C 29.7in /  1004.8hPa NE 4mph /  6.5km/h 6mph /  9.7km/h 73% 0in /  0.0mm
23:34 65.1 °F /  18.4 °C 56.3 °F /  13.5 °C 29.7in /  1004.8hPa NE 4mph /  6.5km/h 6mph /  9.7km/h 73.2% 0in /  0.0mm
23:39 65.1 °F /  18.4 °C 56.7 °F /  13.7 °C 29.7in /  1004.5hPa NE 3.7mph /  5.9km/h 6.2mph /  10km/h 74% 0in /  0.0mm
23:44 64.9 °F /  18.3 °C 56.5 °F /  13.6 °C 29.7in /  1004.5hPa NE 3.1mph /  5km/h 6mph /  9.7km/h 74.1% 0in /  0.0mm
23:49 64.9 °F /  18.3 °C 56.7 °F /  13.7 °C 29.7in /  1004.5hPa NE 3.5mph /  5.7km/h 7.4mph /  11.9km/h 75% 0in /  0.0mm
23:54 64.8 °F /  18.2 °C 57 °F /  13.9 °C 29.7in /  1004.4hPa NNE 4.3mph /  6.9km/h 7mph /  11.3km/h 76.1% 0in /  0.0mm
23:59 64.6 °F /  18.1 °C 57.4 °F /  14.1 °C 29.7in /  1004.4hPa NNE 4.3mph /  6.9km/h 7mph /  11.3km/h 77.3% 0in /  0.0mm
Murcia-Puente Tocinos, España
Compliments of Weather Underground - 2.75 mb

La estación de MeteoMurcia.com, publica sus datos en los siguientes proyectos:

Weather Underground PWS IMURCIAP2 Meteoclimatic www.awekas.at

W3Counter
Web Analytics